sensor_id;sensor_type;location;lat;lon;timestamp;P1;durP1;ratioP1;P2;durP2;ratioP2
47289;SDS011;33197;52.524;13.444;2022-07-30T00:01:33;6.85;;;1.75;;
47289;SDS011;33197;52.524;13.444;2022-07-30T00:04:02;9.68;;;2.03;;
47289;SDS011;33197;52.524;13.444;2022-07-30T00:06:29;4.90;;;1.52;;
47289;SDS011;33197;52.524;13.444;2022-07-30T00:08:57;9.43;;;2.47;;
47289;SDS011;33197;52.524;13.444;2022-07-30T00:11:24;4.70;;;1.92;;
47289;SDS011;33197;52.524;13.444;2022-07-30T00:13:54;10.75;;;1.92;;
47289;SDS011;33197;52.524;13.444;2022-07-30T00:16:21;6.22;;;2.20;;
47289;SDS011;33197;52.524;13.444;2022-07-30T00:18:49;5.82;;;2.10;;
47289;SDS011;33197;52.524;13.444;2022-07-30T00:21:17;10.93;;;2.47;;
47289;SDS011;33197;52.524;13.444;2022-07-30T00:24:05;3.33;;;1.83;;
47289;SDS011;33197;52.524;13.444;2022-07-30T00:26:32;6.40;;;2.05;;
47289;SDS011;33197;52.524;13.444;2022-07-30T00:29:00;5.28;;;1.80;;
47289;SDS011;33197;52.524;13.444;2022-07-30T00:31:27;12.07;;;1.90;;
47289;SDS011;33197;52.524;13.444;2022-07-30T00:33:54;5.32;;;2.35;;
47289;SDS011;33197;52.524;13.444;2022-07-30T00:36:22;3.38;;;1.70;;
47289;SDS011;33197;52.524;13.444;2022-07-30T00:38:49;6.72;;;1.80;;
47289;SDS011;33197;52.524;13.444;2022-07-30T00:41:16;8.70;;;1.70;;
47289;SDS011;33197;52.524;13.444;2022-07-30T00:43:43;3.83;;;2.03;;
47289;SDS011;33197;52.524;13.444;2022-07-30T00:46:11;5.88;;;2.25;;
47289;SDS011;33197;52.524;13.444;2022-07-30T00:48:40;4.93;;;1.77;;
47289;SDS011;33197;52.524;13.444;2022-07-30T00:51:08;7.90;;;2.28;;
47289;SDS011;33197;52.524;13.444;2022-07-30T00:53:35;4.70;;;1.77;;
47289;SDS011;33197;52.524;13.444;2022-07-30T00:56:03;6.30;;;1.90;;
47289;SDS011;33197;52.524;13.444;2022-07-30T00:58:30;6.10;;;1.90;;
47289;SDS011;33197;52.524;13.444;2022-07-30T01:00:58;4.78;;;1.45;;
47289;SDS011;33197;52.524;13.444;2022-07-30T01:03:25;8.05;;;1.83;;
47289;SDS011;33197;52.524;13.444;2022-07-30T01:05:53;8.20;;;2.22;;
47289;SDS011;33197;52.524;13.444;2022-07-30T01:08:20;8.85;;;1.67;;
47289;SDS011;33197;52.524;13.444;2022-07-30T01:10:47;8.02;;;1.98;;
47289;SDS011;33197;52.524;13.444;2022-07-30T01:13:14;8.38;;;1.73;;
47289;SDS011;33197;52.524;13.444;2022-07-30T01:15:42;7.05;;;1.80;;
47289;SDS011;33197;52.524;13.444;2022-07-30T01:18:10;6.15;;;1.80;;
47289;SDS011;33197;52.524;13.444;2022-07-30T01:20:49;6.72;;;1.85;;
47289;SDS011;33197;52.524;13.444;2022-07-30T01:23:27;5.05;;;1.88;;
47289;SDS011;33197;52.524;13.444;2022-07-30T01:25:59;6.95;;;2.08;;
47289;SDS011;33197;52.524;13.444;2022-07-30T01:28:31;10.77;;;2.22;;
47289;SDS011;33197;52.524;13.444;2022-07-30T01:31:00;5.80;;;2.15;;
47289;SDS011;33197;52.524;13.444;2022-07-30T01:33:28;3.95;;;1.98;;
47289;SDS011;33197;52.524;13.444;2022-07-30T01:35:56;3.58;;;1.83;;
47289;SDS011;33197;52.524;13.444;2022-07-30T01:38:26;8.25;;;2.13;;
47289;SDS011;33197;52.524;13.444;2022-07-30T01:41:00;6.63;;;1.88;;
47289;SDS011;33197;52.524;13.444;2022-07-30T01:43:28;3.53;;;1.70;;
47289;SDS011;33197;52.524;13.444;2022-07-30T01:45:56;5.88;;;2.10;;
47289;SDS011;33197;52.524;13.444;2022-07-30T01:48:24;8.40;;;2.17;;
47289;SDS011;33197;52.524;13.444;2022-07-30T01:50:52;7.10;;;1.88;;
47289;SDS011;33197;52.524;13.444;2022-07-30T01:53:22;5.78;;;1.95;;
47289;SDS011;33197;52.524;13.444;2022-07-30T01:55:52;5.63;;;1.63;;
47289;SDS011;33197;52.524;13.444;2022-07-30T01:58:22;10.07;;;1.80;;
47289;SDS011;33197;52.524;13.444;2022-07-30T02:00:53;5.97;;;1.77;;
47289;SDS011;33197;52.524;13.444;2022-07-30T02:03:21;8.38;;;1.90;;
47289;SDS011;33197;52.524;13.444;2022-07-30T02:05:50;6.43;;;2.08;;
47289;SDS011;33197;52.524;13.444;2022-07-30T02:11:22;4.55;;;1.88;;
47289;SDS011;33197;52.524;13.444;2022-07-30T02:14:13;4.38;;;1.90;;
47289;SDS011;33197;52.524;13.444;2022-07-30T02:16:44;6.45;;;2.05;;
47289;SDS011;33197;52.524;13.444;2022-07-30T02:19:16;5.45;;;1.90;;
47289;SDS011;33197;52.524;13.444;2022-07-30T02:21:45;9.27;;;2.22;;
47289;SDS011;33197;52.524;13.444;2022-07-30T02:24:25;5.38;;;1.55;;
47289;SDS011;33197;52.524;13.444;2022-07-30T02:26:55;6.35;;;1.90;;
47289;SDS011;33197;52.524;13.444;2022-07-30T02:29:30;3.00;;;1.70;;
47289;SDS011;33197;52.524;13.444;2022-07-30T02:32:00;6.93;;;1.90;;
47289;SDS011;33197;52.524;13.444;2022-07-30T02:34:32;3.85;;;1.50;;
47289;SDS011;33197;52.524;13.444;2022-07-30T02:37:03;3.00;;;1.63;;
47289;SDS011;33197;52.524;13.444;2022-07-30T02:39:31;7.70;;;2.28;;
47289;SDS011;33197;52.524;13.444;2022-07-30T02:41:59;8.68;;;1.83;;
47289;SDS011;33197;52.524;13.444;2022-07-30T02:44:27;5.40;;;1.60;;
47289;SDS011;33197;52.524;13.444;2022-07-30T02:46:55;5.10;;;1.88;;
47289;SDS011;33197;52.524;13.444;2022-07-30T02:49:24;5.68;;;1.80;;
47289;SDS011;33197;52.524;13.444;2022-07-30T02:51:53;10.40;;;1.83;;
47289;SDS011;33197;52.524;13.444;2022-07-30T02:54:20;3.72;;;1.73;;
47289;SDS011;33197;52.524;13.444;2022-07-30T02:56:49;4.30;;;1.67;;
47289;SDS011;33197;52.524;13.444;2022-07-30T02:59:17;5.28;;;1.70;;
47289;SDS011;33197;52.524;13.444;2022-07-30T03:01:46;4.15;;;1.80;;
47289;SDS011;33197;52.524;13.444;2022-07-30T03:04:15;5.75;;;1.83;;
47289;SDS011;33197;52.524;13.444;2022-07-30T03:06:45;5.35;;;1.73;;
47289;SDS011;33197;52.524;13.444;2022-07-30T03:09:12;4.32;;;1.80;;
47289;SDS011;33197;52.524;13.444;2022-07-30T03:11:42;5.68;;;1.80;;
47289;SDS011;33197;52.524;13.444;2022-07-30T03:14:10;4.07;;;2.00;;
47289;SDS011;33197;52.524;13.444;2022-07-30T03:16:37;9.75;;;1.83;;
47289;SDS011;33197;52.524;13.444;2022-07-30T03:19:07;9.13;;;2.03;;
47289;SDS011;33197;52.524;13.444;2022-07-30T03:21:35;4.57;;;1.73;;
47289;SDS011;33197;52.524;13.444;2022-07-30T03:24:04;2.40;;;1.35;;
47289;SDS011;33197;52.524;13.444;2022-07-30T03:26:32;4.00;;;1.80;;
47289;SDS011;33197;52.524;13.444;2022-07-30T03:29:01;8.55;;;1.85;;
47289;SDS011;33197;52.524;13.444;2022-07-30T03:31:28;4.13;;;1.25;;
47289;SDS011;33197;52.524;13.444;2022-07-30T03:34:04;6.18;;;2.03;;
47289;SDS011;33197;52.524;13.444;2022-07-30T03:36:32;6.25;;;1.88;;
47289;SDS011;33197;52.524;13.444;2022-07-30T03:39:01;4.50;;;1.73;;
47289;SDS011;33197;52.524;13.444;2022-07-30T03:41:29;5.07;;;1.73;;
47289;SDS011;33197;52.524;13.444;2022-07-30T03:43:57;6.10;;;1.48;;
47289;SDS011;33197;52.524;13.444;2022-07-30T03:46:26;6.32;;;1.60;;
47289;SDS011;33197;52.524;13.444;2022-07-30T03:48:54;5.55;;;1.85;;
47289;SDS011;33197;52.524;13.444;2022-07-30T03:51:23;3.60;;;1.42;;
47289;SDS011;33197;52.524;13.444;2022-07-30T03:53:50;4.25;;;1.77;;
47289;SDS011;33197;52.524;13.444;2022-07-30T03:56:17;4.93;;;1.50;;
47289;SDS011;33197;52.524;13.444;2022-07-30T03:58:45;5.43;;;1.77;;
47289;SDS011;33197;52.524;13.444;2022-07-30T04:01:12;5.25;;;1.52;;
47289;SDS011;33197;52.524;13.444;2022-07-30T04:03:39;4.38;;;1.77;;
47289;SDS011;33197;52.524;13.444;2022-07-30T04:06:06;6.85;;;1.55;;
47289;SDS011;33197;52.524;13.444;2022-07-30T04:08:34;5.32;;;1.42;;
47289;SDS011;33197;52.524;13.444;2022-07-30T04:11:01;2.75;;;1.35;;
47289;SDS011;33197;52.524;13.444;2022-07-30T04:13:30;7.95;;;1.55;;
47289;SDS011;33197;52.524;13.444;2022-07-30T04:16:14;2.92;;;1.92;;
47289;SDS011;33197;52.524;13.444;2022-07-30T04:19:04;4.43;;;1.58;;
47289;SDS011;33197;52.524;13.444;2022-07-30T04:21:34;3.88;;;1.70;;
47289;SDS011;33197;52.524;13.444;2022-07-30T04:24:04;3.13;;;1.33;;
47289;SDS011;33197;52.524;13.444;2022-07-30T04:26:32;8.48;;;1.38;;
47289;SDS011;33197;52.524;13.444;2022-07-30T04:29:01;6.50;;;1.40;;
47289;SDS011;33197;52.524;13.444;2022-07-30T04:31:30;5.65;;;1.88;;
47289;SDS011;33197;52.524;13.444;2022-07-30T04:34:06;3.88;;;1.50;;
47289;SDS011;33197;52.524;13.444;2022-07-30T04:36:34;4.68;;;1.45;;
47289;SDS011;33197;52.524;13.444;2022-07-30T04:39:05;4.78;;;1.35;;
47289;SDS011;33197;52.524;13.444;2022-07-30T04:41:32;4.65;;;1.27;;
47289;SDS011;33197;52.524;13.444;2022-07-30T04:44:15;4.38;;;1.55;;
47289;SDS011;33197;52.524;13.444;2022-07-30T04:46:45;10.32;;;1.50;;
47289;SDS011;33197;52.524;13.444;2022-07-30T04:49:13;3.65;;;1.50;;
47289;SDS011;33197;52.524;13.444;2022-07-30T04:51:41;2.75;;;1.40;;
47289;SDS011;33197;52.524;13.444;2022-07-30T04:54:10;7.18;;;1.30;;
47289;SDS011;33197;52.524;13.444;2022-07-30T04:56:45;4.72;;;1.52;;
47289;SDS011;33197;52.524;13.444;2022-07-30T04:59:27;3.50;;;1.50;;
47289;SDS011;33197;52.524;13.444;2022-07-30T05:01:55;4.95;;;1.30;;
47289;SDS011;33197;52.524;13.444;2022-07-30T05:04:24;10.65;;;1.88;;
47289;SDS011;33197;52.524;13.444;2022-07-30T05:06:52;6.18;;;1.58;;
47289;SDS011;33197;52.524;13.444;2022-07-30T05:09:19;2.25;;;1.27;;
47289;SDS011;33197;52.524;13.444;2022-07-30T05:11:50;6.20;;;1.65;;
47289;SDS011;33197;52.524;13.444;2022-07-30T05:14:19;7.32;;;1.70;;
47289;SDS011;33197;52.524;13.444;2022-07-30T05:16:47;4.80;;;1.70;;
47289;SDS011;33197;52.524;13.444;2022-07-30T05:19:15;3.95;;;1.30;;
47289;SDS011;33197;52.524;13.444;2022-07-30T05:21:43;11.35;;;1.88;;
47289;SDS011;33197;52.524;13.444;2022-07-30T05:24:10;5.15;;;1.80;;
47289;SDS011;33197;52.524;13.444;2022-07-30T05:26:37;3.03;;;1.40;;
47289;SDS011;33197;52.524;13.444;2022-07-30T05:29:05;2.85;;;1.30;;
47289;SDS011;33197;52.524;13.444;2022-07-30T05:31:33;3.55;;;1.45;;
47289;SDS011;33197;52.524;13.444;2022-07-30T05:34:04;6.03;;;1.30;;
47289;SDS011;33197;52.524;13.444;2022-07-30T05:36:31;2.85;;;1.40;;
47289;SDS011;33197;52.524;13.444;2022-07-30T05:38:58;3.30;;;1.40;;
47289;SDS011;33197;52.524;13.444;2022-07-30T05:41:26;4.78;;;1.52;;
47289;SDS011;33197;52.524;13.444;2022-07-30T05:43:59;4.68;;;1.70;;
47289;SDS011;33197;52.524;13.444;2022-07-30T05:46:26;2.42;;;1.10;;
47289;SDS011;33197;52.524;13.444;2022-07-30T05:48:53;4.90;;;1.15;;
47289;SDS011;33197;52.524;13.444;2022-07-30T05:51:21;5.28;;;1.40;;
47289;SDS011;33197;52.524;13.444;2022-07-30T05:53:48;5.65;;;1.40;;
47289;SDS011;33197;52.524;13.444;2022-07-30T05:56:16;5.47;;;1.67;;
47289;SDS011;33197;52.524;13.444;2022-07-30T05:58:43;5.57;;;1.42;;
47289;SDS011;33197;52.524;13.444;2022-07-30T06:01:10;5.30;;;1.58;;
47289;SDS011;33197;52.524;13.444;2022-07-30T06:03:38;2.80;;;1.38;;
47289;SDS011;33197;52.524;13.444;2022-07-30T06:06:06;4.85;;;1.52;;
47289;SDS011;33197;52.524;13.444;2022-07-30T06:08:33;6.75;;;1.75;;
47289;SDS011;33197;52.524;13.444;2022-07-30T06:11:01;4.18;;;1.27;;
47289;SDS011;33197;52.524;13.444;2022-07-30T06:13:28;5.45;;;1.40;;
47289;SDS011;33197;52.524;13.444;2022-07-30T06:15:56;12.77;;;1.52;;
47289;SDS011;33197;52.524;13.444;2022-07-30T06:18:24;5.95;;;1.40;;
47289;SDS011;33197;52.524;13.444;2022-07-30T06:20:51;3.13;;;1.98;;
47289;SDS011;33197;52.524;13.444;2022-07-30T06:23:20;3.25;;;1.58;;
47289;SDS011;33197;52.524;13.444;2022-07-30T06:25:48;3.95;;;1.52;;
47289;SDS011;33197;52.524;13.444;2022-07-30T06:28:16;6.30;;;2.08;;
47289;SDS011;33197;52.524;13.444;2022-07-30T06:31:04;3.60;;;1.65;;
47289;SDS011;33197;52.524;13.444;2022-07-30T06:33:32;3.30;;;1.42;;
47289;SDS011;33197;52.524;13.444;2022-07-30T06:35:59;8.27;;;1.50;;
47289;SDS011;33197;52.524;13.444;2022-07-30T06:38:27;6.70;;;1.98;;
47289;SDS011;33197;52.524;13.444;2022-07-30T06:40:54;2.42;;;1.23;;
47289;SDS011;33197;52.524;13.444;2022-07-30T06:43:28;4.03;;;1.05;;
47289;SDS011;33197;52.524;13.444;2022-07-30T06:45:55;5.25;;;2.17;;
47289;SDS011;33197;52.524;13.444;2022-07-30T06:48:23;3.85;;;1.40;;
47289;SDS011;33197;52.524;13.444;2022-07-30T06:50:50;8.27;;;1.70;;
47289;SDS011;33197;52.524;13.444;2022-07-30T06:53:17;7.82;;;1.40;;
47289;SDS011;33197;52.524;13.444;2022-07-30T06:55:44;5.53;;;1.73;;
47289;SDS011;33197;52.524;13.444;2022-07-30T06:58:12;4.00;;;1.35;;
47289;SDS011;33197;52.524;13.444;2022-07-30T07:00:39;5.43;;;1.20;;
47289;SDS011;33197;52.524;13.444;2022-07-30T07:03:06;2.85;;;1.20;;
47289;SDS011;33197;52.524;13.444;2022-07-30T07:05:37;2.95;;;1.30;;
47289;SDS011;33197;52.524;13.444;2022-07-30T07:08:04;4.18;;;1.95;;
47289;SDS011;33197;52.524;13.444;2022-07-30T07:10:32;4.07;;;1.52;;
47289;SDS011;33197;52.524;13.444;2022-07-30T07:12:59;4.90;;;1.38;;
47289;SDS011;33197;52.524;13.444;2022-07-30T07:15:26;6.75;;;2.17;;
47289;SDS011;33197;52.524;13.444;2022-07-30T07:18:03;6.65;;;1.52;;
47289;SDS011;33197;52.524;13.444;2022-07-30T07:20:31;3.67;;;1.40;;
47289;SDS011;33197;52.524;13.444;2022-07-30T07:22:59;5.15;;;1.45;;
47289;SDS011;33197;52.524;13.444;2022-07-30T07:25:32;9.50;;;1.52;;
47289;SDS011;33197;52.524;13.444;2022-07-30T07:27:59;3.00;;;1.60;;
47289;SDS011;33197;52.524;13.444;2022-07-30T07:30:39;3.00;;;0.95;;
47289;SDS011;33197;52.524;13.444;2022-07-30T07:33:07;3.63;;;1.17;;
47289;SDS011;33197;52.524;13.444;2022-07-30T07:35:36;3.92;;;1.40;;
47289;SDS011;33197;52.524;13.444;2022-07-30T07:38:16;5.13;;;1.70;;
47289;SDS011;33197;52.524;13.444;2022-07-30T07:40:44;5.32;;;1.60;;
47289;SDS011;33197;52.524;13.444;2022-07-30T07:43:11;4.32;;;1.65;;
47289;SDS011;33197;52.524;13.444;2022-07-30T07:45:40;7.25;;;1.67;;
47289;SDS011;33197;52.524;13.444;2022-07-30T07:48:08;5.15;;;1.48;;
47289;SDS011;33197;52.524;13.444;2022-07-30T07:50:35;3.65;;;1.55;;
47289;SDS011;33197;52.524;13.444;2022-07-30T07:53:02;6.63;;;1.67;;
47289;SDS011;33197;52.524;13.444;2022-07-30T07:55:30;5.80;;;1.75;;
47289;SDS011;33197;52.524;13.444;2022-07-30T07:57:59;2.42;;;1.45;;
47289;SDS011;33197;52.524;13.444;2022-07-30T08:00:27;2.90;;;1.48;;
47289;SDS011;33197;52.524;13.444;2022-07-30T08:02:54;10.13;;;1.70;;
47289;SDS011;33197;52.524;13.444;2022-07-30T08:05:22;3.58;;;1.55;;
47289;SDS011;33197;52.524;13.444;2022-07-30T08:07:49;15.13;;;2.80;;
47289;SDS011;33197;52.524;13.444;2022-07-30T08:10:16;3.03;;;1.35;;
47289;SDS011;33197;52.524;13.444;2022-07-30T08:12:44;2.67;;;1.23;;
47289;SDS011;33197;52.524;13.444;2022-07-30T08:15:12;4.65;;;1.30;;
47289;SDS011;33197;52.524;13.444;2022-07-30T08:17:39;4.38;;;1.70;;
47289;SDS011;33197;52.524;13.444;2022-07-30T08:20:08;10.13;;;1.65;;
47289;SDS011;33197;52.524;13.444;2022-07-30T08:22:35;4.25;;;1.50;;
47289;SDS011;33197;52.524;13.444;2022-07-30T08:25:03;6.20;;;1.98;;
47289;SDS011;33197;52.524;13.444;2022-07-30T08:27:32;7.93;;;1.80;;
47289;SDS011;33197;52.524;13.444;2022-07-30T08:30:04;4.53;;;1.88;;
47289;SDS011;33197;52.524;13.444;2022-07-30T08:32:32;5.30;;;1.48;;
47289;SDS011;33197;52.524;13.444;2022-07-30T08:34:59;4.10;;;1.85;;
47289;SDS011;33197;52.524;13.444;2022-07-30T08:37:27;2.80;;;1.35;;
47289;SDS011;33197;52.524;13.444;2022-07-30T08:39:54;3.10;;;1.42;;
47289;SDS011;33197;52.524;13.444;2022-07-30T08:42:21;2.83;;;1.50;;
47289;SDS011;33197;52.524;13.444;2022-07-30T08:44:52;5.88;;;1.90;;
47289;SDS011;33197;52.524;13.444;2022-07-30T08:47:24;3.88;;;1.80;;
47289;SDS011;33197;52.524;13.444;2022-07-30T08:49:54;7.05;;;1.42;;
47289;SDS011;33197;52.524;13.444;2022-07-30T08:52:27;11.32;;;2.10;;
47289;SDS011;33197;52.524;13.444;2022-07-30T08:54:54;10.63;;;2.65;;
47289;SDS011;33197;52.524;13.444;2022-07-30T08:57:21;10.45;;;2.53;;
47289;SDS011;33197;52.524;13.444;2022-07-30T08:59:49;7.30;;;1.25;;
47289;SDS011;33197;52.524;13.444;2022-07-30T09:02:29;4.43;;;1.90;;
47289;SDS011;33197;52.524;13.444;2022-07-30T09:04:57;13.23;;;2.75;;
47289;SDS011;33197;52.524;13.444;2022-07-30T09:07:24;5.22;;;1.45;;
47289;SDS011;33197;52.524;13.444;2022-07-30T09:09:51;3.85;;;1.45;;
47289;SDS011;33197;52.524;13.444;2022-07-30T09:12:38;5.85;;;1.70;;
47289;SDS011;33197;52.524;13.444;2022-07-30T09:15:07;5.13;;;1.85;;
47289;SDS011;33197;52.524;13.444;2022-07-30T09:17:46;3.67;;;1.50;;
47289;SDS011;33197;52.524;13.444;2022-07-30T09:20:15;4.25;;;1.33;;
47289;SDS011;33197;52.524;13.444;2022-07-30T09:22:44;5.43;;;1.58;;
47289;SDS011;33197;52.524;13.444;2022-07-30T09:25:13;4.25;;;1.73;;
47289;SDS011;33197;52.524;13.444;2022-07-30T09:27:46;9.45;;;1.95;;
47289;SDS011;33197;52.524;13.444;2022-07-30T09:30:15;6.57;;;1.52;;
47289;SDS011;33197;52.524;13.444;2022-07-30T09:32:52;9.38;;;1.83;;
47289;SDS011;33197;52.524;13.444;2022-07-30T09:35:23;4.03;;;1.40;;
47289;SDS011;33197;52.524;13.444;2022-07-30T09:37:57;5.00;;;1.55;;
47289;SDS011;33197;52.524;13.444;2022-07-30T09:40:32;5.35;;;1.42;;
47289;SDS011;33197;52.524;13.444;2022-07-30T09:43:07;3.30;;;1.13;;
47289;SDS011;33197;52.524;13.444;2022-07-30T09:45:35;2.97;;;1.27;;
47289;SDS011;33197;52.524;13.444;2022-07-30T09:48:24;6.20;;;1.52;;
47289;SDS011;33197;52.524;13.444;2022-07-30T09:50:53;4.88;;;1.70;;
47289;SDS011;33197;52.524;13.444;2022-07-30T09:53:23;3.70;;;1.20;;
47289;SDS011;33197;52.524;13.444;2022-07-30T09:55:50;5.82;;;1.33;;
47289;SDS011;33197;52.524;13.444;2022-07-30T09:58:17;2.45;;;1.17;;
47289;SDS011;33197;52.524;13.444;2022-07-30T10:00:56;2.45;;;1.10;;
47289;SDS011;33197;52.524;13.444;2022-07-30T10:03:26;2.45;;;1.50;;
47289;SDS011;33197;52.524;13.444;2022-07-30T10:06:08;5.70;;;1.10;;
47289;SDS011;33197;52.524;13.444;2022-07-30T10:11:13;7.05;;;1.42;;
47289;SDS011;33197;52.524;13.444;2022-07-30T10:13:42;4.60;;;1.20;;
47289;SDS011;33197;52.524;13.444;2022-07-30T10:16:11;3.38;;;1.20;;
47289;SDS011;33197;52.524;13.444;2022-07-30T10:18:40;7.15;;;1.70;;
47289;SDS011;33197;52.524;13.444;2022-07-30T10:21:07;9.00;;;1.95;;
47289;SDS011;33197;52.524;13.444;2022-07-30T10:23:35;6.00;;;1.35;;
47289;SDS011;33197;52.524;13.444;2022-07-30T10:28:36;3.45;;;1.13;;
47289;SDS011;33197;52.524;13.444;2022-07-30T10:31:06;2.50;;;1.40;;
47289;SDS011;33197;52.524;13.444;2022-07-30T10:33:53;4.45;;;1.50;;
47289;SDS011;33197;52.524;13.444;2022-07-30T10:36:20;4.05;;;1.58;;
47289;SDS011;33197;52.524;13.444;2022-07-30T10:38:50;6.53;;;1.63;;
47289;SDS011;33197;52.524;13.444;2022-07-30T10:44:23;5.88;;;1.40;;
47289;SDS011;33197;52.524;13.444;2022-07-30T10:47:12;2.33;;;1.10;;
47289;SDS011;33197;52.524;13.444;2022-07-30T10:49:40;4.75;;;1.30;;
47289;SDS011;33197;52.524;13.444;2022-07-30T10:52:09;4.05;;;1.02;;
47289;SDS011;33197;52.524;13.444;2022-07-30T10:54:44;2.70;;;1.17;;
47289;SDS011;33197;52.524;13.444;2022-07-30T11:02:27;3.65;;;0.90;;
47289;SDS011;33197;52.524;13.444;2022-07-30T11:14:06;5.82;;;1.55;;
47289;SDS011;33197;52.524;13.444;2022-07-30T11:24:51;4.05;;;0.98;;
47289;SDS011;33197;52.524;13.444;2022-07-30T11:27:35;2.28;;;1.17;;
47289;SDS011;33197;52.524;13.444;2022-07-30T11:35:27;3.28;;;0.90;;
47289;SDS011;33197;52.524;13.444;2022-07-30T11:43:19;1.58;;;0.90;;
47289;SDS011;33197;52.524;13.444;2022-07-30T11:46:06;1.80;;;1.13;;
47289;SDS011;33197;52.524;13.444;2022-07-30T11:48:38;3.55;;;1.00;;
47289;SDS011;33197;52.524;13.444;2022-07-30T11:51:20;1.20;;;0.90;;
47289;SDS011;33197;52.524;13.444;2022-07-30T11:54:08;4.57;;;1.17;;
47289;SDS011;33197;52.524;13.444;2022-07-30T11:56:36;3.13;;;0.95;;
47289;SDS011;33197;52.524;13.444;2022-07-30T11:59:04;3.55;;;0.90;;
47289;SDS011;33197;52.524;13.444;2022-07-30T12:01:33;4.90;;;1.17;;
47289;SDS011;33197;52.524;13.444;2022-07-30T12:04:01;2.50;;;1.10;;
47289;SDS011;33197;52.524;13.444;2022-07-30T12:06:30;3.28;;;1.05;;
47289;SDS011;33197;52.524;13.444;2022-07-30T12:08:58;4.07;;;1.05;;
47289;SDS011;33197;52.524;13.444;2022-07-30T12:11:32;1.88;;;1.17;;
47289;SDS011;33197;52.524;13.444;2022-07-30T12:14:00;4.00;;;1.10;;
47289;SDS011;33197;52.524;13.444;2022-07-30T12:16:29;2.63;;;1.10;;
47289;SDS011;33197;52.524;13.444;2022-07-30T12:19:01;2.83;;;0.85;;
47289;SDS011;33197;52.524;13.444;2022-07-30T12:21:29;2.13;;;1.10;;
47289;SDS011;33197;52.524;13.444;2022-07-30T12:23:58;3.15;;;1.23;;
47289;SDS011;33197;52.524;13.444;2022-07-30T12:26:28;5.88;;;1.10;;
47289;SDS011;33197;52.524;13.444;2022-07-30T12:28:57;6.60;;;0.95;;
47289;SDS011;33197;52.524;13.444;2022-07-30T12:31:26;5.03;;;1.20;;
47289;SDS011;33197;52.524;13.444;2022-07-30T12:33:53;3.55;;;1.30;;
47289;SDS011;33197;52.524;13.444;2022-07-30T12:36:26;4.93;;;1.52;;
47289;SDS011;33197;52.524;13.444;2022-07-30T12:38:55;1.90;;;1.40;;
47289;SDS011;33197;52.524;13.444;2022-07-30T12:41:39;5.13;;;1.23;;
47289;SDS011;33197;52.524;13.444;2022-07-30T12:44:32;3.00;;;1.10;;
47289;SDS011;33197;52.524;13.444;2022-07-30T12:47:04;2.10;;;1.20;;
47289;SDS011;33197;52.524;13.444;2022-07-30T12:49:33;1.73;;;1.05;;
47289;SDS011;33197;52.524;13.444;2022-07-30T12:55:02;9.55;;;1.63;;
47289;SDS011;33197;52.524;13.444;2022-07-30T13:02:55;3.03;;;1.08;;
47289;SDS011;33197;52.524;13.444;2022-07-30T13:05:41;3.03;;;1.35;;
47289;SDS011;33197;52.524;13.444;2022-07-30T13:08:15;5.65;;;1.65;;
47289;SDS011;33197;52.524;13.444;2022-07-30T13:10:58;3.15;;;1.25;;
47289;SDS011;33197;52.524;13.444;2022-07-30T13:13:26;5.28;;;1.40;;
47289;SDS011;33197;52.524;13.444;2022-07-30T13:16:01;3.25;;;1.90;;
47289;SDS011;33197;52.524;13.444;2022-07-30T13:18:31;1.55;;;0.95;;
47289;SDS011;33197;52.524;13.444;2022-07-30T13:21:00;2.40;;;1.30;;
47289;SDS011;33197;52.524;13.444;2022-07-30T13:23:28;2.08;;;1.20;;
47289;SDS011;33197;52.524;13.444;2022-07-30T13:25:55;2.22;;;1.40;;
47289;SDS011;33197;52.524;13.444;2022-07-30T13:28:23;3.95;;;1.10;;
47289;SDS011;33197;52.524;13.444;2022-07-30T13:30:51;3.80;;;2.20;;
47289;SDS011;33197;52.524;13.444;2022-07-30T13:33:18;5.22;;;1.70;;
47289;SDS011;33197;52.524;13.444;2022-07-30T13:35:45;2.15;;;1.13;;
47289;SDS011;33197;52.524;13.444;2022-07-30T13:38:12;3.88;;;2.08;;
47289;SDS011;33197;52.524;13.444;2022-07-30T13:40:39;2.08;;;1.40;;
47289;SDS011;33197;52.524;13.444;2022-07-30T13:43:07;3.22;;;1.17;;
47289;SDS011;33197;52.524;13.444;2022-07-30T13:45:34;3.22;;;1.10;;
47289;SDS011;33197;52.524;13.444;2022-07-30T13:48:02;4.45;;;1.20;;
47289;SDS011;33197;52.524;13.444;2022-07-30T13:50:29;2.22;;;1.30;;
47289;SDS011;33197;52.524;13.444;2022-07-30T13:52:56;9.02;;;3.33;;
47289;SDS011;33197;52.524;13.444;2022-07-30T13:55:28;4.30;;;1.33;;
47289;SDS011;33197;52.524;13.444;2022-07-30T13:57:56;3.33;;;1.40;;
47289;SDS011;33197;52.524;13.444;2022-07-30T14:00:23;3.83;;;1.15;;
47289;SDS011;33197;52.524;13.444;2022-07-30T14:02:50;5.25;;;1.30;;
47289;SDS011;33197;52.524;13.444;2022-07-30T14:05:17;4.10;;;1.40;;
47289;SDS011;33197;52.524;13.444;2022-07-30T14:07:44;4.05;;;1.40;;
47289;SDS011;33197;52.524;13.444;2022-07-30T14:10:12;3.33;;;1.50;;
47289;SDS011;33197;52.524;13.444;2022-07-30T14:12:39;2.95;;;1.40;;
47289;SDS011;33197;52.524;13.444;2022-07-30T14:15:06;9.15;;;1.50;;
47289;SDS011;33197;52.524;13.444;2022-07-30T14:17:35;5.68;;;1.50;;
47289;SDS011;33197;52.524;13.444;2022-07-30T14:20:02;4.20;;;1.63;;
47289;SDS011;33197;52.524;13.444;2022-07-30T14:22:30;3.53;;;1.63;;
47289;SDS011;33197;52.524;13.444;2022-07-30T14:24:57;1.63;;;1.33;;
47289;SDS011;33197;52.524;13.444;2022-07-30T14:27:25;3.97;;;1.65;;
47289;SDS011;33197;52.524;13.444;2022-07-30T14:29:53;2.78;;;1.50;;
47289;SDS011;33197;52.524;13.444;2022-07-30T14:32:20;2.63;;;1.63;;
47289;SDS011;33197;52.524;13.444;2022-07-30T14:34:49;3.22;;;2.05;;
47289;SDS011;33197;52.524;13.444;2022-07-30T14:37:16;4.65;;;2.50;;
47289;SDS011;33197;52.524;13.444;2022-07-30T14:39:43;3.85;;;2.90;;
47289;SDS011;33197;52.524;13.444;2022-07-30T14:42:10;6.72;;;5.05;;
47289;SDS011;33197;52.524;13.444;2022-07-30T14:44:37;7.43;;;5.43;;
47289;SDS011;33197;52.524;13.444;2022-07-30T14:47:04;8.15;;;7.60;;
47289;SDS011;33197;52.524;13.444;2022-07-30T14:49:32;10.93;;;9.93;;
47289;SDS011;33197;52.524;13.444;2022-07-30T14:51:59;13.73;;;12.82;;
47289;SDS011;33197;52.524;13.444;2022-07-30T14:54:27;20.15;;;19.15;;
47289;SDS011;33197;52.524;13.444;2022-07-30T14:56:54;24.45;;;23.25;;
47289;SDS011;33197;52.524;13.444;2022-07-30T14:59:25;19.80;;;18.70;;
47289;SDS011;33197;52.524;13.444;2022-07-30T15:01:56;12.65;;;11.95;;
47289;SDS011;33197;52.524;13.444;2022-07-30T15:04:23;8.88;;;8.18;;
47289;SDS011;33197;52.524;13.444;2022-07-30T15:06:50;6.75;;;6.25;;
47289;SDS011;33197;52.524;13.444;2022-07-30T15:09:17;7.55;;;7.05;;
47289;SDS011;33197;52.524;13.444;2022-07-30T15:11:45;9.13;;;8.52;;
47289;SDS011;33197;52.524;13.444;2022-07-30T15:14:32;9.45;;;8.77;;
47289;SDS011;33197;52.524;13.444;2022-07-30T15:17:00;10.73;;;7.05;;
47289;SDS011;33197;52.524;13.444;2022-07-30T15:19:30;6.90;;;6.30;;
47289;SDS011;33197;52.524;13.444;2022-07-30T15:21:58;7.70;;;7.00;;
47289;SDS011;33197;52.524;13.444;2022-07-30T15:24:28;6.53;;;6.03;;
47289;SDS011;33197;52.524;13.444;2022-07-30T15:26:56;6.45;;;5.85;;
47289;SDS011;33197;52.524;13.444;2022-07-30T15:29:23;5.50;;;4.90;;
47289;SDS011;33197;52.524;13.444;2022-07-30T15:31:52;5.85;;;5.45;;
47289;SDS011;33197;52.524;13.444;2022-07-30T15:34:20;7.55;;;6.90;;
47289;SDS011;33197;52.524;13.444;2022-07-30T15:36:47;10.07;;;9.48;;
47289;SDS011;33197;52.524;13.444;2022-07-30T15:39:14;13.80;;;13.00;;
47289;SDS011;33197;52.524;13.444;2022-07-30T15:41:41;18.10;;;17.10;;